KSNA/SNA METAR and TAF weather

Enter ICAO airport designator
Station Type Date Time Source
KSNA METAR 2021/09/20 03:53 UTC NOAA

KSNA 200353Z 21003KT 10SM CLR 20/15 A2991 RMK AO2 SLP126 T02000150


Station Type Date Time Source
KSNA Decoded METAR 2021/09/20 03:53 UTC NOAA

SANTA ANA WAYNE ORANGE CTY, CA, United States (KSNA) 33-41N 117-52W 15M
Sep 19, 2021 - 11:53 PM EDT / 2021.09.20 0353 UTC
Wind: from the SSW (210 degrees) at 3 MPH (3 KT):0
Visibility: 10 mile(s):0
Sky conditions: clear
Temperature: 68.0 F (20.0 C)
Dew Point: 59.0 F (15.0 C)
Relative Humidity: 72%
Pressure (altimeter): 29.91 in. Hg (1012 hPa)
ob: KSNA 200353Z 21003KT 10SM CLR 20/15 A2991 RMK AO2 SLP126 T02000150
cycle: 4

Station Type Date Time Source
KSNA TAF 2021/09/19 18:28 UTC NOAA

TAF KSNA 191726Z 1918/2018 VRB04KT 6SM HZ BKN015
FM191900 21008KT P6SM SCT015
FM200200 VRB04KT P6SM SKC
FM201000 15005KT P6SM BKN015

Example: see airport list